createdAt,value
2019-02-22T00:03:26.917Z,42.33
2019-02-22T00:06:11.045Z,41.80
2019-02-22T00:08:55.282Z,39.83
2019-02-22T00:11:40.368Z,38.70
2019-02-22T00:14:24.463Z,37.83
2019-02-22T00:17:09.606Z,35.60
2019-02-22T00:19:53.895Z,31.93
2019-02-22T00:22:38.910Z,31.17
2019-02-22T00:25:23.026Z,29.63
2019-02-22T00:28:07.989Z,29.17
2019-02-22T00:30:53.026Z,27.93
2019-02-22T00:33:37.978Z,27.43
2019-02-22T00:36:20.532Z,28.23
2019-02-22T00:39:11.962Z,25.97
2019-02-22T00:41:56.115Z,27.43
2019-02-22T00:44:41.026Z,27.17
2019-02-22T00:47:25.184Z,23.50
2019-02-22T00:50:10.221Z,23.97
2019-02-22T00:52:55.381Z,22.33
2019-02-22T00:55:40.401Z,20.03
2019-02-22T00:58:24.566Z,21.50
2019-02-22T01:01:09.586Z,22.20
2019-02-22T01:03:54.566Z,21.90
2019-02-22T01:06:38.923Z,21.87
2019-02-22T01:09:23.972Z,19.50
2019-02-22T01:12:08.869Z,19.77
2019-02-22T01:14:53.738Z,23.03
2019-02-22T01:17:38.722Z,22.83
2019-02-22T01:20:22.837Z,23.83
2019-02-22T01:23:07.790Z,20.83
2019-02-22T01:25:52.714Z,23.30
2019-02-22T01:28:37.627Z,23.33
2019-02-22T01:31:22.506Z,22.47
2019-02-22T01:34:07.539Z,23.20
2019-02-22T01:36:51.626Z,24.07
2019-02-22T01:39:36.746Z,22.73
2019-02-22T01:42:21.673Z,24.10
2019-02-22T01:45:06.663Z,24.13
2019-02-22T01:47:51.608Z,23.43
2019-02-22T01:50:36.721Z,22.50
2019-02-22T01:53:21.766Z,22.50
2019-02-22T01:56:06.754Z,22.27
2019-02-22T01:58:51.683Z,21.87
2019-02-22T02:01:36.566Z,20.63
2019-02-22T02:04:21.646Z,21.40
2019-02-22T02:07:06.630Z,20.90
2019-02-22T02:09:51.614Z,19.57
2019-02-22T02:12:36.631Z,19.50
2019-02-22T02:15:21.710Z,17.53
2019-02-22T02:18:06.666Z,18.77
2019-02-22T02:20:51.733Z,18.80
2019-02-22T02:23:36.602Z,17.93
2019-02-22T02:26:21.559Z,17.43
2019-02-22T02:29:06.598Z,16.57
2019-02-22T02:31:51.615Z,16.47
2019-02-22T02:34:36.612Z,18.13
2019-02-22T02:37:20.780Z,15.67
2019-02-22T02:40:05.931Z,16.30
2019-02-22T02:42:50.897Z,16.43
2019-02-22T02:45:35.838Z,16.07
2019-02-22T02:48:20.936Z,15.03
2019-02-22T02:51:05.694Z,14.37
2019-02-22T02:53:50.711Z,14.90
2019-02-22T02:56:34.835Z,13.57
2019-02-22T02:59:19.925Z,13.87
2019-02-22T03:02:08.992Z,15.40
2019-02-22T03:04:54.110Z,15.03
2019-02-22T03:07:46.141Z,14.10
2019-02-22T03:10:31.566Z,14.43
2019-02-22T03:13:16.205Z,14.23
2019-02-22T03:16:01.177Z,13.03
2019-02-22T03:18:46.206Z,14.80
2019-02-22T03:21:31.106Z,13.60
2019-02-22T03:24:16.156Z,13.97
2019-02-22T03:27:01.078Z,13.23
2019-02-22T03:29:46.241Z,12.07
2019-02-22T03:32:31.468Z,11.70
2019-02-22T03:35:16.553Z,11.83
2019-02-22T03:38:00.753Z,11.70
2019-02-22T03:40:45.847Z,11.50
2019-02-22T03:43:30.166Z,11.33
2019-02-22T03:46:15.005Z,11.83
2019-02-22T03:48:59.883Z,11.57
2019-02-22T03:54:39.101Z,11.60
2019-02-22T03:57:24.210Z,10.87
2019-02-22T04:00:07.142Z,12.00
2019-02-22T04:02:58.495Z,10.90
2019-02-22T04:05:43.243Z,10.33
2019-02-22T04:08:27.331Z,10.17
2019-02-22T04:11:12.249Z,10.80
2019-02-22T04:13:57.144Z,9.67
2019-02-22T04:16:42.194Z,10.13
2019-02-22T04:19:24.770Z,10.77
2019-02-22T04:22:16.176Z,10.40
2019-02-22T04:25:01.299Z,11.33
2019-02-22T04:27:46.095Z,10.03
2019-02-22T04:30:30.320Z,8.57
2019-02-22T04:33:15.267Z,6.33
2019-02-22T04:36:00.202Z,5.53
2019-02-22T04:38:42.615Z,4.67
2019-02-22T04:41:27.206Z,4.10
2019-02-22T04:44:12.020Z,3.70
2019-02-22T04:46:56.185Z,3.37
2019-02-22T04:49:41.224Z,3.77
2019-02-22T04:52:26.216Z,3.80
2019-02-22T04:55:10.430Z,3.97
2019-02-22T04:57:55.458Z,4.63
2019-02-22T05:00:39.605Z,3.60
2019-02-22T05:03:24.574Z,4.37
2019-02-22T05:06:08.806Z,3.23
2019-02-22T05:08:53.161Z,4.50
2019-02-22T05:11:38.134Z,4.07
2019-02-22T05:14:23.171Z,4.60
2019-02-22T05:17:08.246Z,4.57
2019-02-22T05:19:53.282Z,4.13
2019-02-22T05:22:38.242Z,4.60
2019-02-22T05:25:09.981Z,5.00
2019-02-22T05:28:01.313Z,5.33
2019-02-22T05:30:52.634Z,6.60
2019-02-22T05:33:37.042Z,6.67
2019-02-22T05:36:21.794Z,7.13
2019-02-22T05:39:18.033Z,8.30
2019-02-22T05:41:40.228Z,8.40
2019-02-22T05:44:31.602Z,8.73
2019-02-22T05:47:15.994Z,9.50
2019-02-22T05:50:00.923Z,8.83
2019-02-22T05:52:45.864Z,9.60
2019-02-22T05:55:30.826Z,10.07
2019-02-22T05:58:15.942Z,8.97
2019-02-22T06:01:00.957Z,10.17
2019-02-22T06:03:46.087Z,11.07
2019-02-22T06:06:30.910Z,12.20
2019-02-22T06:09:15.756Z,12.33
2019-02-22T06:12:00.549Z,11.67
2019-02-22T06:14:45.525Z,13.30
2019-02-22T06:17:30.315Z,14.23
2019-02-22T06:20:12.776Z,14.03
2019-02-22T06:22:57.665Z,11.27
2019-02-22T06:25:43.572Z,14.27
2019-02-22T06:28:27.828Z,13.67
2019-02-22T06:31:12.865Z,14.03
2019-02-22T06:33:57.798Z,13.57
2019-02-22T06:36:42.812Z,14.57
2019-02-22T06:39:27.120Z,13.67
2019-02-22T06:42:12.194Z,14.53
2019-02-22T06:44:57.174Z,14.23
2019-02-22T06:47:41.434Z,14.77
2019-02-22T06:50:33.910Z,16.00
2019-02-22T06:53:13.469Z,16.80
2019-02-22T06:55:45.193Z,17.67
2019-02-22T06:58:36.614Z,17.10
2019-02-22T07:01:21.390Z,16.33
2019-02-22T07:04:05.653Z,16.77
2019-02-22T07:06:50.586Z,18.37
2019-02-22T07:09:33.015Z,17.47
2019-02-22T07:12:30.087Z,16.47
2019-02-22T07:15:14.779Z,16.83
2019-02-22T07:17:59.767Z,14.77
2019-02-22T07:20:44.737Z,16.97
2019-02-22T07:23:29.801Z,17.23
2019-02-22T07:26:14.739Z,15.70
2019-02-22T07:28:57.269Z,14.77
2019-02-22T07:31:48.590Z,12.97
2019-02-22T07:34:32.970Z,11.53
2019-02-22T07:37:18.092Z,11.10
2019-02-22T07:40:04.010Z,6.57
2019-02-22T07:42:48.910Z,7.37
2019-02-22T07:45:33.848Z,5.87
2019-02-22T07:48:16.235Z,6.47
2019-02-22T07:51:07.565Z,5.17
2019-02-22T07:53:51.874Z,7.10
2019-02-22T07:56:36.952Z,4.47
2019-02-22T07:59:22.037Z,6.20
2019-02-22T08:02:07.123Z,5.00
2019-02-22T08:04:51.914Z,5.00
2019-02-22T08:07:37.925Z,4.63
2019-02-22T08:10:22.128Z,3.27
2019-02-22T08:13:07.171Z,3.53
2019-02-22T08:15:51.423Z,2.37
2019-02-22T08:18:36.418Z,2.10
2019-02-22T08:21:21.607Z,2.00
2019-02-22T08:24:06.214Z,1.80
2019-02-22T08:26:50.810Z,2.00
2019-02-22T08:29:38.262Z,1.37
2019-02-22T08:32:22.782Z,2.10
2019-02-22T08:35:07.645Z,2.30
2019-02-22T08:37:56.659Z,1.70
2019-02-22T08:40:41.400Z,1.53
2019-02-22T08:46:43.867Z,1.17
2019-02-22T08:49:28.997Z,1.77
2019-02-22T08:52:11.616Z,1.40
2019-02-22T08:54:57.145Z,1.33
2019-02-22T08:57:41.694Z,1.30
2019-02-22T09:00:26.180Z,1.57
2019-02-22T09:03:16.619Z,1.90
2019-02-22T09:06:01.923Z,1.37
2019-02-22T09:08:47.102Z,1.77
2019-02-22T09:11:31.775Z,2.60
2019-02-22T09:14:16.741Z,2.07
2019-02-22T09:19:49.281Z,2.73
2019-02-22T09:22:34.386Z,2.43
2019-02-22T09:25:19.398Z,1.87
2019-02-22T09:28:04.654Z,2.80
2019-02-22T09:30:49.608Z,2.23
2019-02-22T09:33:35.537Z,2.13
2019-02-22T09:36:20.702Z,2.30
2019-02-22T09:39:05.570Z,1.70
2019-02-22T09:41:51.897Z,2.10
2019-02-22T09:44:36.567Z,2.03
2019-02-22T09:47:21.572Z,1.77
2019-02-22T09:50:06.560Z,1.70
2019-02-22T09:52:51.658Z,1.50
2019-02-22T09:55:34.826Z,1.87
2019-02-22T09:58:26.167Z,1.53
2019-02-22T10:01:13.389Z,1.77
2019-02-22T10:03:58.224Z,1.30
2019-02-22T10:06:42.978Z,1.57
2019-02-22T10:09:27.861Z,1.80
2019-02-22T10:12:12.980Z,1.70
2019-02-22T10:14:57.891Z,1.83
2019-02-22T10:17:42.890Z,1.63
2019-02-22T10:20:27.923Z,1.40
2019-02-22T10:23:12.842Z,1.47
2019-02-22T10:25:57.847Z,1.90
2019-02-22T10:28:42.768Z,1.50
2019-02-22T10:31:25.261Z,1.20
2019-02-22T10:34:16.624Z,1.57
2019-02-22T10:37:01.734Z,2.03
2019-02-22T10:39:46.688Z,1.63
2019-02-22T10:42:32.417Z,1.27
2019-02-22T10:45:16.819Z,1.23
2019-02-22T10:48:01.699Z,1.77
2019-02-22T10:50:46.741Z,1.20
2019-02-22T10:53:31.849Z,1.80
2019-02-22T10:56:16.862Z,1.50
2019-02-22T10:59:01.942Z,1.47
2019-02-22T11:01:46.808Z,1.30
2019-02-22T11:04:31.859Z,1.47
2019-02-22T11:07:16.772Z,1.50
2019-02-22T11:10:01.646Z,1.27
2019-02-22T11:12:45.866Z,1.47
2019-02-22T11:15:30.909Z,1.27
2019-02-22T11:18:15.862Z,1.40
2019-02-22T11:20:58.283Z,1.43
2019-02-22T11:23:42.951Z,1.60
2019-02-22T11:26:27.946Z,2.40
2019-02-22T11:29:13.127Z,1.07
2019-02-22T11:31:58.083Z,1.90
2019-02-22T11:34:42.314Z,1.30
2019-02-22T11:37:27.389Z,1.70
2019-02-22T11:40:12.298Z,1.50
2019-02-22T11:42:57.275Z,1.60
2019-02-22T11:45:41.409Z,1.53
2019-02-22T11:48:25.641Z,1.90
2019-02-22T11:51:10.702Z,1.73
2019-02-22T11:53:53.196Z,2.80
2019-02-22T11:56:44.524Z,1.80
2019-02-22T11:59:28.850Z,1.80
2019-02-22T12:02:13.902Z,1.70
2019-02-22T12:04:58.728Z,1.80
2019-02-22T12:07:43.069Z,1.63
2019-02-22T12:10:28.021Z,1.77
2019-02-22T12:13:12.982Z,1.53
2019-02-22T12:15:57.966Z,1.40
2019-02-22T12:18:42.313Z,1.70
2019-02-22T12:21:27.321Z,1.53
2019-02-22T12:24:12.235Z,1.57
2019-02-22T12:26:57.295Z,2.07
2019-02-22T12:29:41.507Z,1.47
2019-02-22T12:32:26.600Z,2.10
2019-02-22T12:35:11.638Z,1.20
2019-02-22T12:37:56.743Z,1.63
2019-02-22T12:40:41.554Z,1.53
2019-02-22T12:43:26.549Z,1.57
2019-02-22T12:46:10.029Z,1.27
2019-02-22T12:48:54.738Z,1.33
2019-02-22T12:51:39.567Z,1.63
2019-02-22T12:54:24.701Z,1.80
2019-02-22T12:57:09.616Z,2.07
2019-02-22T12:59:54.426Z,1.60
2019-02-22T13:02:39.190Z,1.93
2019-02-22T13:05:23.842Z,2.33
2019-02-22T13:08:08.749Z,1.83
2019-02-22T13:10:53.430Z,2.03
2019-02-22T13:13:38.264Z,1.83
2019-02-22T13:16:23.257Z,1.70
2019-02-22T13:19:08.282Z,1.57
2019-02-22T13:21:50.814Z,2.03
2019-02-22T13:24:38.878Z,1.80
2019-02-22T13:27:26.651Z,2.07
2019-02-22T13:30:11.183Z,2.17
2019-02-22T13:35:42.986Z,2.20
2019-02-22T13:38:31.722Z,1.90
2019-02-22T13:41:16.081Z,2.00
2019-02-22T13:44:00.538Z,2.50
2019-02-22T13:46:45.618Z,1.33
2019-02-22T13:49:50.646Z,1.60
2019-02-22T13:52:40.751Z,1.83
2019-02-22T13:55:26.074Z,1.40
2019-02-22T13:58:10.755Z,1.50
2019-02-22T14:00:55.754Z,1.50
2019-02-22T14:06:27.798Z,1.80
2019-02-22T14:09:15.117Z,2.23
2019-02-22T14:14:46.647Z,2.10
2019-02-22T14:17:31.817Z,1.80
2019-02-22T14:20:16.116Z,1.40
2019-02-22T14:23:00.417Z,1.73
2019-02-22T14:25:45.490Z,1.90
2019-02-22T14:28:29.719Z,1.73
2019-02-22T14:31:14.742Z,1.87
2019-02-22T14:33:59.663Z,1.47
2019-02-22T14:36:44.950Z,1.80
2019-02-22T14:39:38.857Z,1.83
2019-02-22T14:42:22.947Z,1.77
2019-02-22T14:45:08.196Z,2.77
2019-02-22T14:47:53.662Z,1.50
2019-02-22T14:50:37.943Z,1.70
2019-02-22T14:53:25.002Z,1.40
2019-02-22T14:56:09.427Z,2.23
2019-02-22T14:58:58.586Z,1.87
2019-02-22T15:01:46.668Z,1.83
2019-02-22T15:04:31.686Z,1.87
2019-02-22T15:07:17.057Z,1.40
2019-02-22T15:10:01.994Z,1.43
2019-02-22T15:12:47.083Z,1.90
2019-02-22T15:15:35.901Z,1.90
2019-02-22T15:18:21.198Z,1.70
2019-02-22T15:21:05.406Z,1.40
2019-02-22T15:23:50.599Z,1.93
2019-02-22T15:26:39.081Z,1.47
2019-02-22T15:29:23.522Z,1.63
2019-02-22T15:32:08.586Z,1.73
2019-02-22T15:34:55.235Z,1.50
2019-02-22T15:37:43.191Z,1.57
2019-02-22T15:40:27.674Z,1.40
2019-02-22T15:43:12.662Z,1.80
2019-02-22T15:46:11.491Z,1.90
2019-02-22T15:48:47.802Z,1.47
2019-02-22T15:51:32.283Z,2.60
2019-02-22T15:54:17.240Z,1.57
2019-02-22T15:57:02.468Z,1.80
2019-02-22T15:59:47.355Z,1.80
2019-02-22T16:02:32.126Z,2.17
2019-02-22T16:05:35.089Z,1.73
2019-02-22T16:08:19.274Z,1.97
2019-02-22T16:11:04.409Z,2.40
2019-02-22T16:13:47.042Z,2.10
2019-02-22T16:16:31.539Z,1.50
2019-02-22T16:19:13.910Z,1.73
2019-02-22T16:21:58.405Z,1.97
2019-02-22T16:24:43.463Z,1.60
2019-02-22T16:27:28.386Z,2.20
2019-02-22T16:30:11.745Z,2.40
2019-02-22T16:32:56.574Z,1.87
2019-02-22T16:35:40.734Z,2.00
2019-02-22T16:38:25.711Z,2.33
2019-02-22T16:41:10.753Z,1.87
2019-02-22T16:43:55.710Z,1.97
2019-02-22T16:46:40.516Z,2.47
2019-02-22T16:52:45.080Z,1.80
2019-02-22T16:55:29.562Z,2.07
2019-02-22T16:58:11.959Z,2.00
2019-02-22T17:01:03.510Z,2.50
2019-02-22T17:03:48.365Z,2.73
2019-02-22T17:06:32.977Z,2.20
2019-02-22T17:09:17.921Z,2.47
2019-02-22T17:12:06.492Z,3.03
2019-02-22T17:14:49.123Z,2.50
2019-02-22T17:17:33.977Z,2.50
2019-02-22T17:20:19.150Z,2.63
2019-02-22T17:23:04.319Z,2.10
2019-02-22T17:25:49.376Z,2.57
2019-02-22T17:28:34.491Z,2.57
2019-02-22T17:31:19.687Z,2.40
2019-02-22T17:34:04.448Z,2.73
2019-02-22T17:36:49.530Z,2.20
2019-02-22T17:39:36.075Z,2.43
2019-02-22T17:42:20.901Z,2.53
2019-02-22T17:45:07.201Z,2.80
2019-02-22T17:47:51.874Z,3.10
2019-02-22T17:50:36.883Z,3.07
2019-02-22T17:53:21.987Z,3.00
2019-02-22T17:56:06.972Z,2.93
2019-02-22T17:58:51.759Z,2.83
2019-02-22T18:01:36.549Z,2.80
2019-02-22T18:04:21.414Z,2.33
2019-02-22T18:07:06.075Z,3.40
2019-02-22T18:09:51.215Z,2.80
2019-02-22T18:12:35.750Z,2.80
2019-02-22T18:15:20.885Z,2.57
2019-02-22T18:18:05.765Z,3.07
2019-02-22T18:20:50.823Z,2.87
2019-02-22T18:23:36.759Z,2.93
2019-02-22T18:26:22.032Z,3.07
2019-02-22T18:29:06.191Z,3.10
2019-02-22T18:31:51.623Z,2.93
2019-02-22T18:34:36.258Z,2.77
2019-02-22T18:40:08.831Z,3.30
2019-02-22T18:42:54.981Z,3.57
2019-02-22T18:48:35.444Z,4.20
2019-02-22T18:59:58.687Z,2.80
2019-02-22T19:06:04.686Z,3.40
2019-02-22T19:08:52.756Z,3.93
2019-02-22T19:11:37.011Z,3.90
2019-02-22T19:14:21.986Z,3.93
2019-02-22T19:17:07.750Z,3.53
2019-02-22T19:19:53.037Z,3.40
2019-02-22T19:22:37.783Z,3.67
2019-02-22T19:25:24.797Z,3.57
2019-02-22T19:28:09.941Z,4.77
2019-02-22T19:30:55.123Z,6.57
2019-02-22T19:33:39.974Z,8.13
2019-02-22T19:36:24.946Z,10.73
2019-02-22T19:39:09.355Z,10.83
2019-02-22T19:41:54.035Z,13.30
2019-02-22T19:44:39.076Z,10.80
2019-02-22T19:47:23.965Z,10.23
2019-02-22T19:50:09.172Z,9.70
2019-02-22T19:52:54.102Z,10.23
2019-02-22T19:55:38.299Z,8.70
2019-02-22T19:58:23.442Z,7.33
2019-02-22T20:01:08.476Z,7.40
2019-02-22T20:03:53.511Z,7.87
2019-02-22T20:06:25.228Z,7.20
2019-02-22T20:09:16.670Z,7.47
2019-02-22T20:12:01.112Z,6.97
2019-02-22T20:14:46.033Z,6.93
2019-02-22T20:17:30.373Z,8.63
2019-02-22T20:20:15.338Z,7.30
2019-02-22T20:23:00.443Z,10.00
2019-02-22T20:25:45.290Z,7.87
2019-02-22T20:28:30.313Z,8.27
2019-02-22T20:31:20.366Z,7.90
2019-02-22T20:34:02.434Z,7.50
2019-02-22T20:36:47.306Z,9.00
2019-02-22T20:39:32.539Z,7.83
2019-02-22T20:42:17.590Z,7.87
2019-02-22T20:45:01.682Z,6.70
2019-02-22T20:47:45.914Z,7.33
2019-02-22T20:50:30.901Z,7.17
2019-02-22T20:53:15.773Z,6.73
2019-02-22T20:55:47.454Z,5.67
2019-02-22T20:58:38.782Z,6.63
2019-02-22T21:01:23.707Z,6.00
2019-02-22T21:04:07.843Z,6.20
2019-02-22T21:06:52.850Z,6.23
2019-02-22T21:09:37.754Z,5.37
2019-02-22T21:12:22.758Z,5.80
2019-02-22T21:15:07.868Z,5.73
2019-02-22T21:17:52.820Z,5.73
2019-02-22T21:20:37.048Z,4.93
2019-02-22T21:23:21.265Z,4.97
2019-02-22T21:26:06.297Z,4.60
2019-02-22T21:28:51.317Z,4.87
2019-02-22T21:31:36.348Z,4.80
2019-02-22T21:34:21.398Z,3.90
2019-02-22T21:37:06.552Z,4.90
2019-02-22T21:39:51.613Z,4.03
2019-02-22T21:42:36.680Z,4.00
2019-02-22T21:45:21.759Z,3.27
2019-02-22T21:48:06.756Z,4.20
2019-02-22T21:50:49.186Z,4.50
2019-02-22T21:53:33.819Z,3.67
2019-02-22T21:56:18.819Z,4.17
2019-02-22T21:59:01.252Z,4.67
2019-02-22T22:01:45.838Z,3.50
2019-02-22T22:04:30.745Z,4.70
2019-02-22T22:07:15.590Z,4.10
2019-02-22T22:10:02.139Z,4.37
2019-02-22T22:12:46.709Z,4.80
2019-02-22T22:15:31.639Z,5.07
2019-02-22T22:18:16.583Z,4.97
2019-02-22T22:21:01.487Z,5.00
2019-02-22T22:23:45.662Z,4.97
2019-02-22T22:26:30.755Z,4.17
2019-02-22T22:29:15.683Z,4.43
2019-02-22T22:32:00.776Z,5.50
2019-02-22T22:34:45.775Z,3.17
2019-02-22T22:37:30.636Z,4.57
2019-02-22T22:40:14.830Z,5.00
2019-02-22T22:42:59.790Z,4.17
2019-02-22T22:45:44.004Z,4.77
2019-02-22T22:48:29.047Z,4.03
2019-02-22T22:51:13.816Z,4.77
2019-02-22T22:53:58.906Z,4.47
2019-02-22T22:56:43.962Z,4.47
2019-02-22T22:59:28.178Z,5.27
2019-02-22T23:02:13.182Z,5.00
2019-02-22T23:04:58.151Z,4.70
2019-02-22T23:07:43.050Z,4.83
2019-02-22T23:10:27.206Z,4.13
2019-02-22T23:13:12.321Z,5.00
2019-02-22T23:15:57.329Z,5.23
2019-02-22T23:18:42.335Z,4.03
2019-02-22T23:21:27.374Z,5.07
2019-02-22T23:24:11.594Z,4.80
2019-02-22T23:26:56.527Z,4.50
2019-02-22T23:29:40.663Z,4.60
2019-02-22T23:32:25.652Z,4.67
2019-02-22T23:35:10.482Z,5.03
2019-02-22T23:37:55.595Z,4.70
2019-02-22T23:40:39.835Z,4.73
2019-02-22T23:43:22.327Z,5.90
2019-02-22T23:46:13.645Z,4.87
2019-02-22T23:48:57.950Z,5.67
2019-02-22T23:51:42.829Z,4.83
2019-02-22T23:54:27.751Z,4.57
2019-02-22T23:57:12.695Z,4.20
2019-02-22T23:59:57.573Z,5.03
